2016 Cux-Wetter.de -Die Nutzung der Wetterdaten nur mit ausdrcklicher Genehmigung
Wetterdaten: Woche 11.03.19 - 17.03.19 (KW11)
Datum Zeit Temp. A. Feuchte A. Luftdruck Regen Wind Richtung Sonnenschein Solar Taupunkt Windchill Windben
11.03.2019 00:00 3,7 C 91 % 1004,0 hPa 0,0 l/m 15,4 km/h (3 Bft) SW 0,00 h 0 W/m 2,3 C -2,5 C 24,3 km/h (4 Bft)
11.03.2019 01:00 3,2 C 92 % 1003,4 hPa 0,8 l/m 17,4 km/h (3 Bft) SW 0,00 h 0 W/m 2,0 C -4,3 C 28,2 km/h (5 Bft)
11.03.2019 02:00 3,3 C 94 % 1002,5 hPa 0,2 l/m 20,5 km/h (4 Bft) SW 0,00 h 0 W/m 2,3 C -5,6 C 33,0 km/h (5 Bft)
11.03.2019 03:00 3,5 C 93 % 1002,8 hPa 1,2 l/m 20,6 km/h (4 Bft) W 0,00 h 0 W/m 2,6 C -5,3 C 36,9 km/h (5 Bft)
11.03.2019 04:00 3,2 C 94 % 1003,2 hPa 0,8 l/m 18,1 km/h (3 Bft) W 0,00 h 0 W/m 2,3 C -4,6 C 32,9 km/h (5 Bft)
11.03.2019 05:00 3,6 C 94 % 1003,0 hPa 0,0 l/m 13,6 km/h (3 Bft) SW 0,00 h 0 W/m 2,8 C -1,7 C 24,0 km/h (4 Bft)
11.03.2019 06:00 4,0 C 93 % 1003,1 hPa 0,0 l/m 17,2 km/h (3 Bft) W 0,00 h 0 W/m 3,0 C -3,1 C 28,6 km/h (5 Bft)
11.03.2019 07:00 4,4 C 89 % 1003,7 hPa 0,0 l/m 17,3 km/h (3 Bft) SW 0,00 h 18 W/m 2,8 C -2,7 C 28,7 km/h (5 Bft)
11.03.2019 08:00 3,8 C 90 % 1004,2 hPa 0,6 l/m 16,6 km/h (3 Bft) SW 0,00 h 30 W/m 2,3 C -3,0 C 29,4 km/h (5 Bft)
11.03.2019 09:00 4,5 C 92 % 1005,0 hPa 0,8 l/m 14,8 km/h (3 Bft) W 0,00 h 80 W/m 3,3 C -1,4 C 26,0 km/h (4 Bft)
11.03.2019 10:00 5,5 C 88 % 1005,6 hPa 0,0 l/m 14,6 km/h (3 Bft) W 0,15 h 164 W/m 3,7 C -0,1 C 25,2 km/h (4 Bft)
11.03.2019 11:00 5,6 C 87 % 1006,1 hPa 0,0 l/m 14,2 km/h (3 Bft) W 0,30 h 212 W/m 3,6 C 0,2 C 24,9 km/h (4 Bft)
11.03.2019 12:00 6,1 C 87 % 1006,6 hPa 0,0 l/m 15,6 km/h (3 Bft) W-SW 0,55 h 333 W/m 4,1 C 0,2 C 26,0 km/h (4 Bft)
11.03.2019 13:00 5,6 C 87 % 1007,1 hPa 0,0 l/m 13,1 km/h (3 Bft) SW 0,10 h 163 W/m 3,6 C 0,9 C 21,1 km/h (4 Bft)
11.03.2019 14:00 4,8 C 90 % 1007,8 hPa 0,0 l/m 11,6 km/h (2 Bft) SW 0,10 h 151 W/m 3,2 C 0,8 C 17,8 km/h (3 Bft)
11.03.2019 15:00 4,7 C 90 % 1009,0 hPa 0,0 l/m 5,8 km/h (2 Bft) W-SW 0,05 h 97 W/m 3,1 C 4,4 C 11,0 km/h (2 Bft)
11.03.2019 16:00 5,5 C 88 % 1010,3 hPa 0,0 l/m 4,7 km/h (1 Bft) W-SW 0,35 h 139 W/m 3,7 C 5,4 C 9,6 km/h (2 Bft)
11.03.2019 17:00 5,8 C 89 % 1011,7 hPa 0,0 l/m 8,1 km/h (2 Bft) NW 0,25 h 44 W/m 4,1 C 4,1 C 15,9 km/h (3 Bft)
11.03.2019 18:00 5,6 C 89 % 1013,4 hPa 0,0 l/m 15,3 km/h (3 Bft) N-NW 0,05 h 9 W/m 3,9 C -0,3 C 25,9 km/h (4 Bft)
11.03.2019 19:00 5,4 C 89 % 1015,0 hPa 0,0 l/m 14,5 km/h (3 Bft) NW 0,00 h 0 W/m 3,8 C -0,1 C 25,6 km/h (4 Bft)
11.03.2019 20:00 5,1 C 90 % 1016,1 hPa 0,0 l/m 10,6 km/h (2 Bft) NW 0,00 h 0 W/m 3,6 C 2,0 C 21,3 km/h (4 Bft)
11.03.2019 21:00 4,6 C 91 % 1016,8 hPa 0,0 l/m 4,4 km/h (1 Bft) W-NW 0,00 h 0 W/m 3,2 C 4,5 C 11,0 km/h (2 Bft)
11.03.2019 22:00 4,2 C 92 % 1017,2 hPa 0,0 l/m 5,9 km/h (2 Bft) W-NW 0,00 h 0 W/m 3,0 C 4,0 C 11,5 km/h (2 Bft)
11.03.2019 23:00 4,3 C 92 % 1017,8 hPa 0,0 l/m 6,0 km/h (2 Bft) W 0,00 h 0 W/m 3,1 C 3,9 C 11,9 km/h (2 Bft)
12.03.2019 00:00 4,0 C 93 % 1018,0 hPa 0,0 l/m 3,9 km/h (1 Bft) W 0,00 h 0 W/m 2,9 C 3,9 C 8,0 km/h (2 Bft)
12.03.2019 01:00 4,8 C 94 % 1018,0 hPa 0,0 l/m 7,0 km/h (2 Bft) W 0,00 h 0 W/m 3,9 C 4,1 C 13,0 km/h (3 Bft)
12.03.2019 02:00 5,1 C 93 % 1017,9 hPa 0,0 l/m 7,9 km/h (2 Bft) W 0,00 h 0 W/m 4,1 C 3,7 C 14,0 km/h (3 Bft)
12.03.2019 03:00 4,8 C 92 % 1017,3 hPa 0,0 l/m 7,0 km/h (2 Bft) SW 0,00 h 0 W/m 3,6 C 3,6 C 12,1 km/h (2 Bft)
12.03.2019 04:00 4,4 C 93 % 1017,1 hPa 0,0 l/m 11,3 km/h (2 Bft) SW 0,00 h 0 W/m 3,3 C 0,5 C 17,5 km/h (3 Bft)
12.03.2019 05:00 3,9 C 93 % 1016,5 hPa 0,0 l/m 10,2 km/h (2 Bft) SW 0,00 h 0 W/m 2,8 C 0,7 C 16,0 km/h (3 Bft)
12.03.2019 06:00 3,3 C 93 % 1015,6 hPa 0,0 l/m 10,5 km/h (2 Bft) S-SW 0,00 h 11 W/m 2,3 C -0,2 C 17,6 km/h (3 Bft)
12.03.2019 07:00 3,1 C 94 % 1014,8 hPa 0,0 l/m 14,3 km/h (3 Bft) S 0,05 h 23 W/m 2,2 C -2,8 C 23,2 km/h (4 Bft)
12.03.2019 08:00 4,0 C 91 % 1013,8 hPa 0,0 l/m 14,6 km/h (3 Bft) S 0,00 h 60 W/m 2,7 C -1,9 C 24,5 km/h (4 Bft)
12.03.2019 09:00 4,6 C 89 % 1012,9 hPa 0,2 l/m 14,7 km/h (3 Bft) S 0,00 h 79 W/m 2,9 C -1,3 C 26,9 km/h (4 Bft)
12.03.2019 10:00 4,7 C 91 % 1011,6 hPa 1,0 l/m 19,1 km/h (3 Bft) S 0,00 h 90 W/m 3,3 C -3,2 C 33,2 km/h (5 Bft)
12.03.2019 11:00 4,6 C 93 % 1009,6 hPa 0,4 l/m 17,3 km/h (3 Bft) S 0,00 h 97 W/m 3,7 C -2,5 C 31,7 km/h (5 Bft)
12.03.2019 12:00 5,4 C 92 % 1007,6 hPa 0,0 l/m 18,7 km/h (3 Bft) S 0,00 h 101 W/m 4,3 C -2,0 C 32,0 km/h (5 Bft)
12.03.2019 13:00 5,8 C 90 % 1005,8 hPa 0,6 l/m 20,4 km/h (4 Bft) S 0,00 h 83 W/m 4,3 C -2,2 C 34,7 km/h (5 Bft)
12.03.2019 14:00 6,7 C 85 % 1004,2 hPa 0,0 l/m 21,9 km/h (4 Bft) S 0,00 h 86 W/m 4,3 C -1,7 C 37,0 km/h (5 Bft)
12.03.2019 15:00 7,4 C 78 % 1002,7 hPa 0,0 l/m 23,0 km/h (4 Bft) S 0,00 h 75 W/m 3,8 C -1,0 C 38,9 km/h (6 Bft)
12.03.2019 16:00 7,4 C 76 % 1000,8 hPa 0,0 l/m 22,3 km/h (4 Bft) S 0,00 h 33 W/m 3,4 C -0,8 C 38,6 km/h (6 Bft)
12.03.2019 17:00 7,2 C 76 % 999,2 hPa 0,0 l/m 20,5 km/h (4 Bft) S 0,00 h 12 W/m 3,3 C -0,5 C 34,7 km/h (5 Bft)
12.03.2019 18:00 7,4 C 72 % 997,3 hPa 0,0 l/m 23,0 km/h (4 Bft) S 0,00 h 0 W/m 2,7 C -1,1 C 37,4 km/h (5 Bft)
12.03.2019 19:00 7,0 C 76 % 996,0 hPa 0,2 l/m 18,8 km/h (3 Bft) S 0,00 h 0 W/m 3,1 C -0,1 C 32,4 km/h (5 Bft)
12.03.2019 20:00 6,7 C 78 % 994,6 hPa 0,0 l/m 19,5 km/h (3 Bft) S 0,00 h 0 W/m 3,1 C -0,7 C 34,8 km/h (5 Bft)
12.03.2019 21:00 6,7 C 79 % 993,6 hPa 0,6 l/m 23,2 km/h (4 Bft) S 0,00 h 0 W/m 3,3 C -2,0 C 37,6 km/h (5 Bft)
12.03.2019 22:00 6,1 C 86 % 992,4 hPa 0,8 l/m 22,0 km/h (4 Bft) S-SW 0,00 h 0 W/m 3,9 C -2,4 C 36,6 km/h (5 Bft)
12.03.2019 23:00 5,7 C 89 % 992,1 hPa 0,6 l/m 21,4 km/h (4 Bft) SW 0,00 h 0 W/m 4,1 C -2,7 C 34,3 km/h (5 Bft)
13.03.2019 00:00 4,9 C 92 % 993,5 hPa 0,4 l/m 20,0 km/h (4 Bft) W 0,00 h 0 W/m 3,7 C -3,1 C 35,1 km/h (5 Bft)
13.03.2019 01:00 5,0 C 92 % 994,1 hPa 0,0 l/m 19,8 km/h (3 Bft) SW 0,00 h 0 W/m 3,9 C -2,9 C 31,8 km/h (5 Bft)
13.03.2019 02:00 4,9 C 91 % 994,6 hPa 0,0 l/m 24,3 km/h (4 Bft) W-SW 0,00 h 0 W/m 3,5 C -4,8 C 37,2 km/h (5 Bft)
13.03.2019 03:00 4,9 C 90 % 994,2 hPa 0,0 l/m 23,3 km/h (4 Bft) SW 0,00 h 0 W/m 3,4 C -4,4 C 36,3 km/h (5 Bft)
13.03.2019 04:00 5,2 C 89 % 993,7 hPa 0,0 l/m 23,2 km/h (4 Bft) SW 0,00 h 0 W/m 3,6 C -4,1 C 36,4 km/h (5 Bft)
13.03.2019 05:00 5,3 C 90 % 993,4 hPa 0,0 l/m 25,1 km/h (4 Bft) SW 0,00 h 0 W/m 3,8 C -4,6 C 38,7 km/h (6 Bft)
13.03.2019 06:00 5,2 C 91 % 992,9 hPa 0,2 l/m 25,2 km/h (4 Bft) SW 0,00 h 0 W/m 3,8 C -4,7 C 39,8 km/h (6 Bft)
13.03.2019 07:00 5,4 C 91 % 992,6 hPa 0,2 l/m 27,5 km/h (5 Bft) S-SW 0,00 h 14 W/m 4,0 C -5,1 C 42,5 km/h (6 Bft)
13.03.2019 08:00 5,8 C 89 % 992,2 hPa 0,0 l/m 28,8 km/h (5 Bft) SW 0,00 h 60 W/m 4,1 C -5,0 C 45,0 km/h (6 Bft)
13.03.2019 09:00 6,1 C 87 % 991,8 hPa 0,0 l/m 29,4 km/h (5 Bft) SW 0,00 h 69 W/m 4,2 C -4,6 C 45,4 km/h (6 Bft)
13.03.2019 10:00 6,4 C 88 % 991,4 hPa 0,0 l/m 29,6 km/h (5 Bft) S-SW 0,00 h 84 W/m 4,4 C -4,3 C 44,3 km/h (6 Bft)
13.03.2019 11:00 6,4 C 89 % 991,1 hPa 0,6 l/m 30,9 km/h (5 Bft) SW 0,00 h 93 W/m 4,7 C -4,6 C 47,4 km/h (6 Bft)
13.03.2019 12:00 6,4 C 91 % 991,0 hPa 1,0 l/m 30,3 km/h (5 Bft) SW 0,00 h 72 W/m 5,0 C -4,5 C 45,6 km/h (6 Bft)
13.03.2019 13:00 6,1 C 92 % 991,0 hPa 0,8 l/m 28,6 km/h (5 Bft) SW 0,00 h 81 W/m 5,0 C -4,4 C 43,9 km/h (6 Bft)
13.03.2019 14:00 6,5 C 92 % 990,8 hPa 0,2 l/m 26,1 km/h (4 Bft) SW 0,05 h 147 W/m 5,3 C -3,2 C 41,0 km/h (6 Bft)
13.03.2019 15:00 6,8 C 92 % 990,5 hPa 0,2 l/m 21,1 km/h (4 Bft) SW 0,00 h 87 W/m 5,6 C -1,2 C 31,9 km/h (5 Bft)
13.03.2019 16:00 6,8 C 91 % 990,3 hPa 0,4 l/m 21,2 km/h (4 Bft) SW 0,05 h 87 W/m 5,4 C -1,3 C 33,9 km/h (5 Bft)
13.03.2019 17:00 6,4 C 91 % 990,3 hPa 0,4 l/m 22,3 km/h (4 Bft) SW 0,00 h 20 W/m 5,1 C -2,2 C 36,9 km/h (5 Bft)
13.03.2019 18:00 6,3 C 93 % 990,5 hPa 0,8 l/m 20,3 km/h (4 Bft) SW 0,00 h 7 W/m 5,3 C -1,5 C 34,5 km/h (5 Bft)
13.03.2019 19:00 6,5 C 94 % 991,4 hPa 0,0 l/m 19,3 km/h (3 Bft) W 0,00 h 0 W/m 5,6 C -0,9 C 33,8 km/h (5 Bft)
13.03.2019 20:00 6,6 C 93 % 992,7 hPa 0,0 l/m 22,3 km/h (4 Bft) W 0,00 h 0 W/m 5,6 C -1,9 C 40,0 km/h (6 Bft)
13.03.2019 21:00 6,5 C 93 % 994,3 hPa 0,4 l/m 20,4 km/h (4 Bft) W 0,00 h 0 W/m 5,5 C -1,3 C 38,1 km/h (6 Bft)
13.03.2019 22:00 6,3 C 93 % 996,0 hPa 0,0 l/m 18,0 km/h (3 Bft) W 0,00 h 0 W/m 5,3 C -0,6 C 32,5 km/h (5 Bft)
13.03.2019 23:00 6,2 C 92 % 997,3 hPa 0,0 l/m 16,2 km/h (3 Bft) W 0,00 h 0 W/m 4,9 C 0,0 C 29,2 km/h (5 Bft)
14.03.2019 00:00 6,2 C 91 % 998,3 hPa 0,0 l/m 17,5 km/h (3 Bft) W 0,00 h 0 W/m 4,8 C -0,6 C 29,6 km/h (5 Bft)
14.03.2019 01:00 6,3 C 91 % 999,1 hPa 0,0 l/m 15,8 km/h (3 Bft) W 0,00 h 0 W/m 4,9 C 0,3 C 28,2 km/h (5 Bft)
14.03.2019 02:00 6,4 C 91 % 999,5 hPa 0,0 l/m 15,6 km/h (3 Bft) W-SW 0,00 h 0 W/m 5,1 C 0,5 C 27,2 km/h (5 Bft)
14.03.2019 03:00 6,4 C 92 % 999,2 hPa 0,0 l/m 13,7 km/h (3 Bft) W-SW 0,00 h 0 W/m 5,1 C 1,4 C 24,0 km/h (4 Bft)
14.03.2019 04:00 6,4 C 92 % 998,8 hPa 0,0 l/m 16,1 km/h (3 Bft) SW 0,00 h 0 W/m 5,2 C 0,3 C 26,7 km/h (4 Bft)
14.03.2019 05:00 6,5 C 92 % 998,1 hPa 0,0 l/m 19,8 km/h (3 Bft) SW 0,00 h 0 W/m 5,2 C -1,2 C 30,6 km/h (5 Bft)
14.03.2019 06:00 6,4 C 92 % 997,3 hPa 0,0 l/m 20,0 km/h (4 Bft) SW 0,00 h 0 W/m 5,2 C -1,4 C 31,9 km/h (5 Bft)
14.03.2019 07:00 6,3 C 91 % 996,5 hPa 0,0 l/m 20,2 km/h (4 Bft) SW 0,00 h 16 W/m 5,0 C -1,5 C 30,7 km/h (5 Bft)
14.03.2019 08:00 6,3 C 91 % 995,3 hPa 0,2 l/m 18,4 km/h (3 Bft) SW 0,00 h 33 W/m 4,9 C -0,9 C 29,9 km/h (5 Bft)
14.03.2019 09:00 5,9 C 93 % 994,1 hPa 0,6 l/m 18,7 km/h (3 Bft) S-SW 0,00 h 41 W/m 4,8 C -1,5 C 30,4 km/h (5 Bft)
14.03.2019 10:00 5,8 C 94 % 992,5 hPa 0,8 l/m 18,7 km/h (3 Bft) S-SW 0,00 h 45 W/m 4,9 C -1,6 C 28,6 km/h (5 Bft)
14.03.2019 11:00 5,8 C 95 % 990,7 hPa 1,0 l/m 19,5 km/h (3 Bft) SW 0,00 h 65 W/m 5,1 C -1,9 C 30,3 km/h (5 Bft)
14.03.2019 12:00 6,0 C 95 % 989,0 hPa 1,0 l/m 18,4 km/h (3 Bft) S-SW 0,00 h 94 W/m 5,3 C -1,2 C 30,4 km/h (5 Bft)
14.03.2019 13:00 6,3 C 95 % 987,2 hPa 0,4 l/m 18,3 km/h (3 Bft) SW 0,00 h 123 W/m 5,5 C -0,8 C 29,3 km/h (5 Bft)
14.03.2019 14:00 6,3 C 95 % 985,7 hPa 0,2 l/m 15,6 km/h (3 Bft) S 0,00 h 82 W/m 5,6 C 0,4 C 26,4 km/h (4 Bft)
14.03.2019 15:00 6,7 C 95 % 985,1 hPa 0,6 l/m 14,2 km/h (3 Bft) S-SW 0,00 h 70 W/m 6,0 C 1,5 C 23,2 km/h (4 Bft)
14.03.2019 16:00 7,0 C 96 % 985,4 hPa 0,6 l/m 14,4 km/h (3 Bft) W-SW 0,00 h 34 W/m 6,4 C 1,9 C 24,4 km/h (4 Bft)
14.03.2019 17:00 7,0 C 96 % 986,8 hPa 0,0 l/m 16,3 km/h (3 Bft) W 0,00 h 22 W/m 6,4 C 0,9 C 30,0 km/h (5 Bft)
14.03.2019 18:00 6,7 C 96 % 988,8 hPa 0,2 l/m 17,1 km/h (3 Bft) W 0,00 h 8 W/m 6,1 C 0,2 C 31,4 km/h (5 Bft)
14.03.2019 19:00 6,7 C 96 % 990,5 hPa 0,0 l/m 18,4 km/h (3 Bft) W 0,00 h 0 W/m 6,1 C -0,3 C 33,2 km/h (5 Bft)
14.03.2019 20:00 6,8 C 95 % 991,7 hPa 0,0 l/m 19,4 km/h (3 Bft) W 0,00 h 0 W/m 6,0 C -0,6 C 34,2 km/h (5 Bft)
14.03.2019 21:00 6,9 C 92 % 992,4 hPa 0,0 l/m 20,0 km/h (4 Bft) W 0,00 h 0 W/m 5,7 C -0,6 C 34,8 km/h (5 Bft)
14.03.2019 22:00 6,9 C 90 % 993,3 hPa 0,2 l/m 22,1 km/h (4 Bft) W 0,00 h 0 W/m 5,4 C -1,4 C 40,4 km/h (6 Bft)
14.03.2019 23:00 6,8 C 91 % 994,4 hPa 0,0 l/m 20,4 km/h (4 Bft) W 0,00 h 0 W/m 5,3 C -0,9 C 38,5 km/h (6 Bft)
15.03.2019 00:00 6,7 C 89 % 995,4 hPa 0,0 l/m 20,2 km/h (4 Bft) W 0,00 h 0 W/m 5,1 C -1,0 C 35,3 km/h (5 Bft)
15.03.2019 01:00 6,7 C 88 % 996,4 hPa 0,0 l/m 17,6 km/h (3 Bft) W 0,00 h 0 W/m 4,9 C 0,0 C 31,0 km/h (5 Bft)
15.03.2019 02:00 6,7 C 88 % 997,1 hPa 0,0 l/m 16,6 km/h (3 Bft) W 0,00 h 0 W/m 4,9 C 0,5 C 28,6 km/h (5 Bft)
15.03.2019 03:00 6,6 C 90 % 997,4 hPa 0,0 l/m 15,1 km/h (3 Bft) W 0,00 h 0 W/m 5,1 C 1,0 C 26,6 km/h (4 Bft)
15.03.2019 04:00 6,6 C 92 % 997,4 hPa 0,0 l/m 12,5 km/h (2 Bft) W-SW 0,00 h 0 W/m 5,3 C 2,4 C 21,2 km/h (4 Bft)
15.03.2019 05:00 6,3 C 93 % 997,4 hPa 0,0 l/m 12,0 km/h (2 Bft) W-SW 0,00 h 0 W/m 5,3 C 2,4 C 20,7 km/h (4 Bft)
15.03.2019 06:00 6,2 C 94 % 997,2 hPa 0,0 l/m 16,2 km/h (3 Bft) W-SW 0,00 h 7 W/m 5,3 C -0,0 C 25,6 km/h (4 Bft)
15.03.2019 07:00 6,1 C 94 % 996,8 hPa 0,0 l/m 17,1 km/h (3 Bft) SW 0,00 h 31 W/m 5,2 C -0,5 C 26,6 km/h (4 Bft)
15.03.2019 08:00 6,2 C 94 % 996,2 hPa 0,0 l/m 15,4 km/h (3 Bft) SW 0,00 h 81 W/m 5,3 C 0,4 C 24,5 km/h (4 Bft)
15.03.2019 09:00 6,6 C 93 % 995,6 hPa 0,0 l/m 16,9 km/h (3 Bft) S-SW 0,00 h 85 W/m 5,6 C 0,2 C 26,4 km/h (4 Bft)
15.03.2019 10:00 7,1 C 92 % 994,3 hPa 0,0 l/m 17,2 km/h (3 Bft) S-SW 0,00 h 87 W/m 5,9 C 0,7 C 29,0 km/h (5 Bft)
15.03.2019 11:00 7,1 C 93 % 992,3 hPa 1,6 l/m 19,9 km/h (4 Bft) S 0,00 h 85 W/m 6,1 C -0,4 C 32,4 km/h (5 Bft)
15.03.2019 12:00 7,6 C 95 % 991,0 hPa 1,2 l/m 25,4 km/h (4 Bft) SW 0,00 h 75 W/m 6,9 C -1,5 C 39,7 km/h (6 Bft)
15.03.2019 13:00 9,4 C 95 % 990,9 hPa 0,0 l/m 27,7 km/h (5 Bft) W 0,65 h 323 W/m 8,6 C 0,3 C 47,9 km/h (6 Bft)
15.03.2019 14:00 9,7 C 88 % 991,3 hPa 0,0 l/m 30,0 km/h (5 Bft) W 0,95 h 358 W/m 7,8 C 0,3 C 52,0 km/h (7 Bft)
15.03.2019 15:00 9,7 C 83 % 992,2 hPa 0,0 l/m 28,5 km/h (5 Bft) W-SW 1,00 h 352 W/m 6,9 C 0,6 C 48,5 km/h (6 Bft)
15.03.2019 16:00 9,1 C 81 % 992,8 hPa 0,0 l/m 26,6 km/h (4 Bft) W 0,65 h 189 W/m 5,9 C 0,2 C 47,7 km/h (6 Bft)
15.03.2019 17:00 8,4 C 80 % 993,5 hPa 0,0 l/m 26,4 km/h (4 Bft) W 0,10 h 48 W/m 5,2 C -0,7 C 47,7 km/h (6 Bft)
15.03.2019 18:00 7,9 C 80 % 994,5 hPa 0,0 l/m 25,9 km/h (4 Bft) W 0,00 h 10 W/m 4,7 C -1,2 C 46,5 km/h (6 Bft)
15.03.2019 19:00 7,7 C 80 % 995,6 hPa 0,0 l/m 25,7 km/h (4 Bft) W 0,00 h 0 W/m 4,5 C -1,4 C 46,0 km/h (6 Bft)
15.03.2019 20:00 7,6 C 82 % 996,6 hPa 0,0 l/m 22,9 km/h (4 Bft) W 0,00 h 0 W/m 4,7 C -0,8 C 40,9 km/h (6 Bft)
15.03.2019 21:00 7,3 C 82 % 997,5 hPa 0,0 l/m 22,0 km/h (4 Bft) W 0,00 h 0 W/m 4,5 C -0,8 C 39,3 km/h (6 Bft)
15.03.2019 22:00 7,4 C 82 % 998,2 hPa 0,0 l/m 23,5 km/h (4 Bft) W 0,00 h 0 W/m 4,5 C -1,3 C 42,2 km/h (6 Bft)
15.03.2019 23:00 7,3 C 82 % 999,1 hPa 0,0 l/m 22,1 km/h (4 Bft) W 0,00 h 0 W/m 4,4 C -0,9 C 37,5 km/h (5 Bft)
16.03.2019 00:00 7,1 C 83 % 999,8 hPa 0,0 l/m 21,6 km/h (4 Bft) W 0,00 h 0 W/m 4,4 C -1,1 C 37,8 km/h (6 Bft)
16.03.2019 01:00 6,9 C 85 % 1000,7 hPa 0,0 l/m 19,1 km/h (3 Bft) W-SW 0,00 h 0 W/m 4,5 C -0,4 C 32,8 km/h (5 Bft)
16.03.2019 02:00 6,8 C 85 % 1001,3 hPa 0,0 l/m 18,2 km/h (3 Bft) W 0,00 h 0 W/m 4,5 C -0,1 C 31,1 km/h (5 Bft)
16.03.2019 03:00 6,7 C 86 % 1001,8 hPa 0,0 l/m 18,1 km/h (3 Bft) W 0,00 h 0 W/m 4,5 C -0,2 C 31,4 km/h (5 Bft)
16.03.2019 04:00 6,7 C 85 % 1002,3 hPa 0,0 l/m 16,8 km/h (3 Bft) W 0,00 h 0 W/m 4,4 C 0,4 C 28,6 km/h (5 Bft)
16.03.2019 05:00 6,7 C 85 % 1002,5 hPa 0,0 l/m 14,5 km/h (3 Bft) W 0,00 h 0 W/m 4,4 C 1,4 C 23,3 km/h (4 Bft)
16.03.2019 06:00 6,6 C 86 % 1002,7 hPa 0,0 l/m 12,7 km/h (3 Bft) W-SW 0,00 h 7 W/m 4,5 C 2,3 C 21,2 km/h (4 Bft)
16.03.2019 07:00 6,6 C 86 % 1002,8 hPa 0,0 l/m 10,9 km/h (2 Bft) SW 0,00 h 33 W/m 4,4 C 3,3 C 19,1 km/h (3 Bft)
16.03.2019 08:00 6,5 C 87 % 1002,6 hPa 0,0 l/m 13,0 km/h (3 Bft) SW 0,00 h 69 W/m 4,5 C 2,0 C 20,8 km/h (4 Bft)
16.03.2019 09:00 6,7 C 86 % 1002,6 hPa 0,0 l/m 16,0 km/h (3 Bft) SW 0,00 h 92 W/m 4,5 C 0,7 C 26,0 km/h (4 Bft)
16.03.2019 10:00 6,7 C 84 % 1002,4 hPa 0,0 l/m 19,0 km/h (3 Bft) SW 0,00 h 157 W/m 4,3 C -0,6 C 30,1 km/h (5 Bft)
16.03.2019 11:00 5,8 C 89 % 1001,7 hPa 0,0 l/m 14,9 km/h (3 Bft) S-SW 0,00 h 152 W/m 4,1 C 0,4 C 23,7 km/h (4 Bft)
16.03.2019 12:00 5,5 C 93 % 1000,6 hPa 1,2 l/m 9,0 km/h (2 Bft) S 0,00 h 91 W/m 4,4 C 3,3 C 16,3 km/h (3 Bft)
16.03.2019 13:00 5,4 C 95 % 999,1 hPa 1,6 l/m 11,4 km/h (2 Bft) S-SO 0,00 h 80 W/m 4,6 C 1,6 C 20,3 km/h (4 Bft)
16.03.2019 14:00 6,3 C 96 % 997,8 hPa 1,4 l/m 12,2 km/h (2 Bft) S 0,00 h 68 W/m 5,6 C 2,3 C 21,3 km/h (4 Bft)
16.03.2019 15:00 8,1 C 96 % 996,9 hPa 1,6 l/m 16,5 km/h (3 Bft) S-SW 0,00 h 29 W/m 7,5 C 2,4 C 26,2 km/h (4 Bft)
16.03.2019 16:00 8,6 C 96 % 996,2 hPa 1,2 l/m 24,0 km/h (4 Bft) SW 0,00 h 15 W/m 8,0 C 0,2 C 35,9 km/h (5 Bft)
16.03.2019 17:00 8,6 C 95 % 995,6 hPa 0,8 l/m 25,2 km/h (4 Bft) SW 0,00 h 6 W/m 7,9 C -0,0 C 37,9 km/h (6 Bft)
16.03.2019 18:00 9,1 C 91 % 995,1 hPa 0,2 l/m 26,5 km/h (4 Bft) SW 0,00 h 0 W/m 7,7 C 0,2 C 41,1 km/h (6 Bft)
16.03.2019 19:00 9,6 C 86 % 995,0 hPa 0,0 l/m 30,0 km/h (5 Bft) SW 0,00 h 0 W/m 7,3 C 0,2 C 44,7 km/h (6 Bft)
16.03.2019 20:00 9,8 C 81 % 994,4 hPa 0,0 l/m 33,3 km/h (5 Bft) SW 0,00 h 0 W/m 6,8 C -0,3 C 50,5 km/h (7 Bft)
16.03.2019 21:00 9,9 C 79 % 993,9 hPa 0,0 l/m 33,1 km/h (5 Bft) SW 0,00 h 0 W/m 6,5 C -0,0 C 50,0 km/h (7 Bft)
16.03.2019 22:00 10,2 C 77 % 993,6 hPa 0,0 l/m 33,6 km/h (5 Bft) SW 0,00 h 0 W/m 6,4 C 0,2 C 50,1 km/h (7 Bft)
16.03.2019 23:00 10,1 C 78 % 993,0 hPa 0,0 l/m 26,2 km/h (4 Bft) SW 0,00 h 0 W/m 6,5 C 1,7 C 39,7 km/h (6 Bft)
17.03.2019 00:00 9,9 C 81 % 992,3 hPa 0,0 l/m 25,1 km/h (4 Bft) SW 0,00 h 0 W/m 6,8 C 1,8 C 39,1 km/h (6 Bft)
17.03.2019 01:00 10,0 C 82 % 991,2 hPa 0,0 l/m 24,5 km/h (4 Bft) SW 0,00 h 0 W/m 7,0 C 2,0 C 38,6 km/h (6 Bft)
17.03.2019 02:00 9,8 C 83 % 990,4 hPa 0,0 l/m 22,8 km/h (4 Bft) SW 0,00 h 0 W/m 7,2 C 2,2 C 35,9 km/h (5 Bft)
17.03.2019 03:00 9,5 C 86 % 989,8 hPa 0,0 l/m 23,0 km/h (4 Bft) S-SW 0,00 h 0 W/m 7,2 C 1,7 C 35,6 km/h (5 Bft)
17.03.2019 04:00 8,9 C 90 % 989,2 hPa 0,4 l/m 24,3 km/h (4 Bft) SW 0,00 h 0 W/m 7,3 C 0,6 C 38,1 km/h (6 Bft)
17.03.2019 05:00 8,2 C 93 % 989,0 hPa 1,6 l/m 20,8 km/h (4 Bft) SW 0,00 h 0 W/m 7,1 C 0,9 C 33,1 km/h (5 Bft)
17.03.2019 06:00 6,4 C 94 % 990,1 hPa 0,6 l/m 14,6 km/h (3 Bft) SW 0,00 h 5 W/m 5,4 C 1,0 C 25,2 km/h (4 Bft)
17.03.2019 07:00 5,9 C 94 % 990,8 hPa 0,0 l/m 16,9 km/h (3 Bft) SW 0,00 h 22 W/m 5,0 C -0,6 C 26,9 km/h (4 Bft)
17.03.2019 08:00 6,2 C 93 % 991,7 hPa 0,0 l/m 19,1 km/h (3 Bft) SW 0,00 h 46 W/m 5,1 C -1,3 C 29,2 km/h (5 Bft)
17.03.2019 09:00 6,5 C 89 % 992,7 hPa 0,0 l/m 17,5 km/h (3 Bft) SW 0,00 h 104 W/m 4,7 C -0,2 C 30,3 km/h (5 Bft)
17.03.2019 10:00 7,6 C 80 % 993,6 hPa 0,0 l/m 18,2 km/h (3 Bft) SW 0,35 h 285 W/m 4,4 C 0,9 C 31,9 km/h (5 Bft)
17.03.2019 11:00 8,1 C 77 % 994,1 hPa 0,0 l/m 18,3 km/h (3 Bft) W-SW 0,65 h 369 W/m 4,4 C 1,5 C 31,5 km/h (5 Bft)
17.03.2019 12:00 8,7 C 75 % 994,7 hPa 0,0 l/m 19,4 km/h (3 Bft) W-SW 0,75 h 463 W/m 4,5 C 1,9 C 33,2 km/h (5 Bft)
17.03.2019 13:00 8,8 C 73 % 995,2 hPa 0,0 l/m 21,6 km/h (4 Bft) W-SW 0,70 h 404 W/m 4,2 C 1,3 C 35,2 km/h (5 Bft)
17.03.2019 14:00 9,0 C 73 % 995,9 hPa 0,0 l/m 24,5 km/h (4 Bft) W 0,95 h 475 W/m 4,4 C 0,6 C 40,6 km/h (6 Bft)
17.03.2019 15:00 8,4 C 73 % 996,7 hPa 0,0 l/m 23,6 km/h (4 Bft) W-SW 0,50 h 272 W/m 3,9 C 0,1 C 39,7 km/h (6 Bft)
17.03.2019 16:00 7,7 C 76 % 997,3 hPa 0,0 l/m 22,9 km/h (4 Bft) W-SW 0,00 h 101 W/m 3,8 C -0,6 C 40,0 km/h (6 Bft)
17.03.2019 17:00 7,2 C 78 % 997,9 hPa 0,0 l/m 23,9 km/h (4 Bft) W 0,20 h 53 W/m 3,6 C -1,6 C 41,8 km/h (6 Bft)
17.03.2019 18:00 6,6 C 80 % 998,5 hPa 0,0 l/m 22,6 km/h (4 Bft) SW 0,05 h 12 W/m 3,4 C -2,0 C 39,0 km/h (6 Bft)
17.03.2019 19:00 6,2 C 82 % 999,0 hPa 0,0 l/m 20,6 km/h (4 Bft) SW 0,00 h 0 W/m 3,3 C -1,8 C 35,5 km/h (5 Bft)
17.03.2019 20:00 6,1 C 83 % 999,3 hPa 0,0 l/m 21,5 km/h (4 Bft) SW 0,00 h 0 W/m 3,4 C -2,3 C 37,0 km/h (5 Bft)
17.03.2019 21:00 5,9 C 84 % 999,2 hPa 0,0 l/m 24,0 km/h (4 Bft) SW 0,00 h 0 W/m 3,3 C -3,4 C 37,7 km/h (5 Bft)
17.03.2019 22:00 5,8 C 85 % 999,2 hPa 0,6 l/m 27,1 km/h (5 Bft) SW 0,00 h 0 W/m 3,4 C -4,4 C 40,9 km/h (6 Bft)
17.03.2019 23:00 4,9 C 90 % 999,8 hPa 0,6 l/m 25,4 km/h (4 Bft) SW 0,00 h 0 W/m 3,4 C -5,2 C 41,8 km/h (6 Bft)
Min-Datum _ 11.03.19 17.03.19 14.03.19 - 11.03.19 - - - 11.03.19 11.03.19 11.03.19
_ Min-Zeit 02:03 12:51 15:15 - 21:42 - - - 01:51 04:39 16:03
Minimum _ 2,9 C 71 % 985,0 hPa - 1,1 km/h (1 Bft) - - - 1,8 C -7,5 C 4,8 km/h (1 Bft)
Max-Datum _ 16.03.19 14.03.19 12.03.19 15.03.19 16.03.19 - 11.03.19 11.03.19 15.03.19 11.03.19 16.03.19
_ Max-Zeit 22:12 15:36 00:21 11:06 22:09 - 10:24 12:21 13:24 17:06 20:45
Maximum _ 10,2 C 96 % 1018,1 hPa 1,6 l/m 39,3 km/h
SW (6 Bft)
- 0,05 h 694 W/m 9,0 C 5,8 C 64,4 km/h
SW (8 Bft)
Durchschnitt _ 6,4 C 89 % 998,5 hPa #34,8 l/m 19,1 km/h (3 Bft) SW #9:33 h 102 W/m 4,6 C -0,5 C 31,8 km/h (5 Bft)
2019 Cux-Wetter.de -Die Nutzung der Wetterdaten nur mit ausdrcklicher Genehmigung